createdAt,value
2022-11-25T00:00:14.943Z,3.78
2022-11-25T00:01:20.364Z,4.00
2022-11-25T00:02:22.638Z,4.30
2022-11-25T00:03:25.738Z,4.50
2022-11-25T00:04:29.249Z,4.80
2022-11-25T00:05:32.169Z,4.22
2022-11-25T00:06:35.414Z,4.00
2022-11-25T00:07:38.954Z,4.80
2022-11-25T00:08:42.146Z,5.28
2022-11-25T00:09:45.063Z,5.07
2022-11-25T00:10:47.057Z,5.75
2022-11-25T00:11:51.357Z,5.15
2022-11-25T00:12:53.295Z,5.07
2022-11-25T00:13:57.528Z,5.00
2022-11-25T00:14:59.474Z,5.60
2022-11-25T00:16:04.022Z,5.30
2022-11-25T00:17:06.130Z,4.40
2022-11-25T00:18:09.091Z,4.80
2022-11-25T00:19:11.631Z,4.10
2022-11-25T00:20:14.710Z,4.13
2022-11-25T00:21:19.208Z,5.68
2022-11-25T00:22:22.106Z,5.35
2022-11-25T00:23:26.074Z,5.40
2022-11-25T00:24:32.086Z,5.63
2022-11-25T00:25:34.056Z,5.90
2022-11-25T00:26:37.864Z,4.93
2022-11-25T00:27:41.136Z,4.53
2022-11-25T00:28:45.766Z,4.10
2022-11-25T00:29:47.723Z,4.65
2022-11-25T00:30:50.637Z,4.57
2022-11-25T00:31:53.627Z,4.65
2022-11-25T00:32:55.644Z,5.60
2022-11-25T00:33:58.625Z,5.43
2022-11-25T00:35:00.543Z,4.55
2022-11-25T00:36:03.589Z,5.55
2022-11-25T00:37:06.545Z,4.53
2022-11-25T00:38:08.477Z,5.70
2022-11-25T00:39:13.664Z,6.72
2022-11-25T00:40:15.663Z,4.35
2022-11-25T00:41:35.841Z,3.60
2022-11-25T00:42:56.328Z,3.60
2022-11-25T00:44:18.106Z,2.90
2022-11-25T00:45:21.108Z,2.80
2022-11-25T00:46:23.126Z,2.80
2022-11-25T00:47:26.096Z,3.53
2022-11-25T00:48:28.024Z,3.55
2022-11-25T00:49:30.948Z,4.30
2022-11-25T00:50:32.925Z,3.72
2022-11-25T00:51:36.008Z,4.18
2022-11-25T00:52:38.940Z,4.95
2022-11-25T00:53:40.929Z,4.25
2022-11-25T00:54:44.652Z,4.82
2022-11-25T00:56:05.177Z,3.47
2022-11-25T00:57:08.123Z,2.75
2022-11-25T00:58:10.070Z,3.00
2022-11-25T00:59:14.409Z,3.42
2022-11-25T01:00:17.746Z,3.58
2022-11-25T01:01:19.758Z,4.00
2022-11-25T01:02:23.357Z,3.05
2022-11-25T01:03:25.373Z,3.00
2022-11-25T01:04:28.392Z,3.17
2022-11-25T01:05:30.360Z,3.17
2022-11-25T01:06:33.287Z,3.83
2022-11-25T01:07:35.297Z,2.80
2022-11-25T01:08:39.853Z,2.90
2022-11-25T01:09:42.803Z,3.30
2022-11-25T01:10:44.769Z,2.53
2022-11-25T01:11:47.712Z,2.58
2022-11-25T01:12:49.623Z,2.72
2022-11-25T01:14:00.658Z,2.88
2022-11-25T01:15:05.539Z,2.78
2022-11-25T01:16:18.906Z,3.08
2022-11-25T01:17:20.888Z,2.60
2022-11-25T01:18:23.901Z,3.72
2022-11-25T01:19:25.979Z,2.75
2022-11-25T01:20:28.905Z,2.67
2022-11-25T01:21:32.461Z,3.22
2022-11-25T01:22:35.401Z,2.95
2022-11-25T01:23:37.367Z,2.88
2022-11-25T01:24:40.331Z,3.78
2022-11-25T01:25:42.305Z,3.00
2022-11-25T01:26:46.001Z,3.45
2022-11-25T01:27:48.900Z,3.20
2022-11-25T01:28:54.780Z,3.05
2022-11-25T01:29:57.881Z,3.00
2022-11-25T01:31:02.857Z,3.17
2022-11-25T01:32:06.252Z,3.28
2022-11-25T01:33:08.272Z,3.30
2022-11-25T01:34:15.007Z,3.40
2022-11-25T01:35:16.943Z,3.25
2022-11-25T01:36:20.036Z,3.30
2022-11-25T01:37:23.001Z,3.55
2022-11-25T01:38:24.960Z,3.33
2022-11-25T01:39:32.387Z,3.05
2022-11-25T01:40:36.312Z,3.75
2022-11-25T01:41:39.290Z,2.92
2022-11-25T01:42:43.653Z,3.60
2022-11-25T01:44:05.141Z,4.10
2022-11-25T01:45:38.782Z,3.50
2022-11-25T01:46:54.107Z,3.33
2022-11-25T01:48:01.945Z,3.03
2022-11-25T01:49:12.119Z,3.88
2022-11-25T01:50:17.956Z,2.92
2022-11-25T01:51:26.152Z,4.03
2022-11-25T01:52:31.656Z,3.30
2022-11-25T01:53:34.784Z,3.20
2022-11-25T01:54:43.927Z,2.88
2022-11-25T01:55:53.018Z,3.55
2022-11-25T01:56:58.475Z,3.15
2022-11-25T01:58:06.737Z,3.10
2022-11-25T01:59:08.845Z,3.10
2022-11-25T02:00:13.158Z,3.55
2022-11-25T02:01:16.523Z,3.75
2022-11-25T02:02:22.287Z,2.70
2022-11-25T02:03:31.733Z,3.13
2022-11-25T02:04:38.681Z,3.30
2022-11-25T02:05:48.527Z,2.95
2022-11-25T02:06:57.114Z,3.20
2022-11-25T02:07:59.805Z,3.08
2022-11-25T02:09:05.887Z,2.90
2022-11-25T02:10:13.895Z,2.80
2022-11-25T02:11:17.959Z,3.40
2022-11-25T02:12:22.755Z,2.88
2022-11-25T02:13:24.868Z,2.90
2022-11-25T02:14:28.071Z,2.70
2022-11-25T02:15:33.947Z,3.55
2022-11-25T02:16:37.051Z,3.20
2022-11-25T02:17:40.816Z,3.65
2022-11-25T02:18:43.895Z,3.17
2022-11-25T02:19:58.770Z,3.55
2022-11-25T02:21:01.803Z,3.60
2022-11-25T02:22:10.303Z,3.50
2022-11-25T02:23:22.117Z,3.70
2022-11-25T02:24:30.220Z,3.05
2022-11-25T02:25:36.203Z,3.72
2022-11-25T02:26:38.551Z,3.40
2022-11-25T02:27:42.369Z,3.28
2022-11-25T02:28:45.712Z,2.72
2022-11-25T02:29:49.670Z,3.42
2022-11-25T02:30:53.198Z,2.72
2022-11-25T02:31:55.237Z,3.25
2022-11-25T02:32:59.849Z,4.18
2022-11-25T02:34:01.826Z,3.78
2022-11-25T02:35:28.287Z,3.45
2022-11-25T02:36:31.236Z,3.28
2022-11-25T02:37:33.164Z,3.50
2022-11-25T02:38:40.661Z,3.20
2022-11-25T02:39:43.058Z,3.08
2022-11-25T02:40:52.867Z,3.33
2022-11-25T02:41:58.053Z,3.47
2022-11-25T02:43:01.916Z,3.67
2022-11-25T02:44:04.929Z,2.85
2022-11-25T02:45:13.141Z,3.83
2022-11-25T02:46:22.234Z,3.10
2022-11-25T02:47:24.586Z,3.10
2022-11-25T02:49:00.830Z,2.42
2022-11-25T02:49:52.336Z,3.65
2022-11-25T02:50:55.658Z,3.35
2022-11-25T02:51:57.675Z,3.10
2022-11-25T02:53:00.658Z,3.20
2022-11-25T02:54:03.620Z,3.25
2022-11-25T02:55:06.459Z,2.83
2022-11-25T02:56:12.354Z,3.58
2022-11-25T02:57:14.268Z,3.35
2022-11-25T02:58:17.593Z,3.30
2022-11-25T02:59:19.585Z,4.00
2022-11-25T03:00:22.914Z,3.20
2022-11-25T03:01:25.048Z,3.30
2022-11-25T03:02:28.063Z,4.10
2022-11-25T03:03:30.105Z,4.13
2022-11-25T03:04:33.324Z,3.83
2022-11-25T03:05:35.336Z,3.65
2022-11-25T03:06:38.323Z,3.80
2022-11-25T03:07:40.306Z,4.47
2022-11-25T03:08:43.404Z,4.40
2022-11-25T03:09:45.356Z,3.75
2022-11-25T03:10:48.300Z,3.78
2022-11-25T03:12:09.943Z,3.60
2022-11-25T03:13:11.846Z,3.83
2022-11-25T03:14:14.854Z,3.50
2022-11-25T03:15:17.434Z,3.58
2022-11-25T03:16:20.401Z,3.50
2022-11-25T03:17:22.456Z,3.50
2022-11-25T03:18:25.383Z,3.25
2022-11-25T03:19:27.371Z,2.80
2022-11-25T03:20:30.461Z,3.33
2022-11-25T03:21:33.217Z,3.30
2022-11-25T03:22:36.219Z,3.80
2022-11-25T03:23:38.169Z,3.30
2022-11-25T03:24:41.109Z,3.50
2022-11-25T03:25:44.103Z,3.40
2022-11-25T03:26:46.068Z,3.60
2022-11-25T03:27:50.427Z,3.33
2022-11-25T03:28:52.451Z,3.70
2022-11-25T03:29:55.412Z,3.40
2022-11-25T03:30:57.413Z,3.28
2022-11-25T03:32:01.694Z,2.90
2022-11-25T03:33:06.276Z,3.30
2022-11-25T03:34:08.207Z,2.95
2022-11-25T03:35:11.924Z,2.97
2022-11-25T03:36:13.876Z,3.17
2022-11-25T03:37:16.871Z,2.30
2022-11-25T03:38:18.811Z,2.50
2022-11-25T03:39:21.692Z,2.63
2022-11-25T03:40:23.744Z,2.47
2022-11-25T03:41:26.648Z,3.28
2022-11-25T03:42:28.671Z,2.75
2022-11-25T03:43:33.042Z,2.45
2022-11-25T03:44:35.351Z,2.55
2022-11-25T03:45:38.393Z,2.70
2022-11-25T03:46:40.430Z,2.03
2022-11-25T03:47:44.245Z,2.80
2022-11-25T03:48:46.268Z,2.38
2022-11-25T03:49:49.235Z,2.97
2022-11-25T03:50:51.232Z,1.83
2022-11-25T03:51:54.229Z,2.97
2022-11-25T03:52:56.233Z,2.80
2022-11-25T03:53:59.235Z,2.90
2022-11-25T03:55:01.277Z,2.70
2022-11-25T03:56:04.745Z,2.88
2022-11-25T03:57:06.722Z,2.72
2022-11-25T03:58:09.685Z,2.70
2022-11-25T03:59:13.021Z,3.10
2022-11-25T04:00:16.357Z,2.90
2022-11-25T04:01:18.404Z,2.95
2022-11-25T04:02:21.410Z,3.20
2022-11-25T04:03:23.428Z,3.22
2022-11-25T04:04:26.552Z,3.10
2022-11-25T04:05:28.541Z,3.10
2022-11-25T04:06:32.087Z,2.65
2022-11-25T04:07:34.193Z,2.35
2022-11-25T04:08:37.272Z,2.63
2022-11-25T04:09:39.180Z,2.97
2022-11-25T04:10:42.127Z,3.25
2022-11-25T04:12:03.996Z,3.05
2022-11-25T04:13:05.993Z,2.75
2022-11-25T04:14:07.908Z,2.80
2022-11-25T04:15:12.792Z,3.00
2022-11-25T04:16:22.955Z,2.90
2022-11-25T04:17:25.968Z,2.80
2022-11-25T04:18:27.922Z,2.55
2022-11-25T04:19:30.848Z,2.70
2022-11-25T04:20:32.808Z,2.88
2022-11-25T04:21:35.836Z,2.10
2022-11-25T04:22:37.867Z,2.75
2022-11-25T04:23:40.813Z,2.88
2022-11-25T04:24:42.765Z,3.15
2022-11-25T04:25:45.659Z,2.65
2022-11-25T04:26:47.548Z,2.75
2022-11-25T04:27:50.509Z,2.40
2022-11-25T04:28:53.071Z,2.85
2022-11-25T04:29:56.142Z,3.05
2022-11-25T04:30:59.509Z,2.60
2022-11-25T04:32:02.492Z,2.85
2022-11-25T04:33:04.482Z,2.95
2022-11-25T04:34:07.419Z,2.50
2022-11-25T04:35:10.785Z,2.60
2022-11-25T04:36:12.859Z,3.00
2022-11-25T04:37:15.771Z,2.90
2022-11-25T04:38:17.813Z,3.58
2022-11-25T04:39:20.893Z,2.70
2022-11-25T04:40:23.130Z,3.33
2022-11-25T04:41:26.076Z,2.75
2022-11-25T04:42:34.708Z,2.85
2022-11-25T04:43:37.699Z,2.85
2022-11-25T04:44:39.696Z,2.95
2022-11-25T04:46:12.494Z,2.70
2022-11-25T04:47:06.049Z,2.90
2022-11-25T04:48:09.044Z,2.47
2022-11-25T04:49:11.670Z,2.90
2022-11-25T04:50:17.044Z,3.30
2022-11-25T04:51:20.046Z,3.70
2022-11-25T04:52:22.151Z,2.70
2022-11-25T04:53:25.395Z,3.13
2022-11-25T04:54:27.348Z,2.83
2022-11-25T04:55:30.534Z,2.67
2022-11-25T04:56:32.656Z,3.20
2022-11-25T04:57:35.563Z,3.00
2022-11-25T04:58:56.018Z,3.17
2022-11-25T04:59:58.005Z,2.90
2022-11-25T05:01:00.940Z,2.78
2022-11-25T05:02:02.990Z,2.45
2022-11-25T05:03:08.321Z,3.30
2022-11-25T05:04:10.329Z,3.13
2022-11-25T05:05:13.387Z,2.50
2022-11-25T05:06:15.412Z,2.70
2022-11-25T05:07:20.478Z,2.70
2022-11-25T05:08:22.443Z,2.13
2022-11-25T05:09:25.346Z,2.53
2022-11-25T05:10:28.473Z,2.50
2022-11-25T05:11:30.677Z,2.45
2022-11-25T05:12:33.669Z,2.72
2022-11-25T05:13:35.564Z,2.78
2022-11-25T05:14:38.682Z,3.70
2022-11-25T05:15:40.656Z,3.30
2022-11-25T05:16:43.638Z,3.50
2022-11-25T05:17:46.621Z,2.60
2022-11-25T05:18:49.910Z,2.55
2022-11-25T05:19:53.270Z,2.75
2022-11-25T05:20:55.358Z,2.67
2022-11-25T05:21:58.647Z,2.70
2022-11-25T05:23:00.632Z,2.78
2022-11-25T05:24:03.623Z,2.88
2022-11-25T05:25:07.036Z,2.60
2022-11-25T05:26:08.996Z,2.80
2022-11-25T05:27:12.749Z,3.25
2022-11-25T05:28:14.921Z,3.00
2022-11-25T05:29:17.824Z,3.38
2022-11-25T05:30:19.932Z,3.28
2022-11-25T05:31:22.875Z,3.05
2022-11-25T05:32:25.001Z,2.60
2022-11-25T05:33:28.347Z,3.03
2022-11-25T05:34:32.719Z,3.05
2022-11-25T05:35:34.644Z,3.38
2022-11-25T05:36:37.949Z,3.58
2022-11-25T05:37:39.915Z,2.92
2022-11-25T05:38:43.599Z,3.42
2022-11-25T05:39:45.552Z,2.88
2022-11-25T05:40:48.471Z,2.90
2022-11-25T05:41:50.512Z,3.50
2022-11-25T05:42:53.452Z,3.78
2022-11-25T05:43:55.580Z,3.83
2022-11-25T05:44:58.556Z,3.67
2022-11-25T05:46:04.402Z,4.05
2022-11-25T05:47:07.412Z,3.42
2022-11-25T05:48:09.505Z,3.33
2022-11-25T05:49:12.504Z,3.92
2022-11-25T05:50:15.928Z,3.78
2022-11-25T05:51:18.867Z,4.55
2022-11-25T05:52:20.779Z,3.85
2022-11-25T05:53:23.704Z,4.50
2022-11-25T05:54:26.832Z,4.95
2022-11-25T05:55:28.748Z,5.30
2022-11-25T05:56:31.721Z,5.95
2022-11-25T05:57:33.716Z,5.72
2022-11-25T05:58:36.620Z,5.40
2022-11-25T05:59:38.536Z,5.85
2022-11-25T06:00:41.438Z,4.75
2022-11-25T06:01:43.407Z,4.70
2022-11-25T06:02:46.563Z,4.63
2022-11-25T06:03:48.679Z,3.95
2022-11-25T06:04:51.742Z,4.38
2022-11-25T06:05:55.789Z,3.28
2022-11-25T06:06:58.785Z,5.00
2022-11-25T06:08:00.777Z,4.60
2022-11-25T06:09:03.818Z,4.47
2022-11-25T06:10:07.304Z,5.00
2022-11-25T06:11:13.830Z,3.78
2022-11-25T06:12:15.789Z,4.95
2022-11-25T06:13:19.112Z,4.05
2022-11-25T06:14:22.155Z,5.00
2022-11-25T06:15:24.156Z,4.53
2022-11-25T06:16:28.241Z,3.60
2022-11-25T06:17:30.759Z,4.50
2022-11-25T06:18:33.711Z,3.90
2022-11-25T06:19:35.687Z,4.72
2022-11-25T06:20:39.144Z,4.05
2022-11-25T06:21:42.468Z,4.18
2022-11-25T06:22:45.461Z,3.80
2022-11-25T06:23:47.694Z,3.80
2022-11-25T06:24:58.930Z,4.15
2022-11-25T06:26:06.869Z,4.75
2022-11-25T06:27:09.831Z,3.53
2022-11-25T06:28:13.154Z,4.70
2022-11-25T06:29:16.495Z,4.38
2022-11-25T06:30:19.247Z,4.65
2022-11-25T06:31:23.561Z,4.55
2022-11-25T06:32:25.868Z,4.13
2022-11-25T06:33:28.874Z,5.05
2022-11-25T06:34:31.818Z,4.25
2022-11-25T06:35:33.803Z,5.07
2022-11-25T06:36:36.783Z,4.20
2022-11-25T06:37:40.303Z,4.97
2022-11-25T06:38:43.360Z,3.72
2022-11-25T06:39:45.312Z,4.85
2022-11-25T06:40:48.435Z,4.93
2022-11-25T06:41:51.449Z,4.90
2022-11-25T06:42:53.446Z,4.22
2022-11-25T06:43:56.824Z,4.25
2022-11-25T06:44:58.804Z,3.85
2022-11-25T06:46:06.758Z,4.38
2022-11-25T06:47:08.786Z,3.45
2022-11-25T06:48:11.729Z,4.50
2022-11-25T06:49:13.713Z,4.53
2022-11-25T06:50:16.782Z,4.47
2022-11-25T06:51:20.076Z,4.40
2022-11-25T06:52:22.459Z,5.30
2022-11-25T06:53:27.068Z,5.38
2022-11-25T06:54:29.222Z,5.65
2022-11-25T06:55:32.930Z,6.00
2022-11-25T06:56:34.939Z,4.82
2022-11-25T06:57:38.042Z,4.82
2022-11-25T06:58:41.020Z,5.13
2022-11-25T06:59:44.026Z,4.50
2022-11-25T07:00:45.947Z,4.18
2022-11-25T07:01:49.163Z,4.75
2022-11-25T07:02:51.479Z,4.68
2022-11-25T07:03:56.065Z,5.75
2022-11-25T07:04:58.017Z,6.80
2022-11-25T07:06:01.397Z,6.63
2022-11-25T07:07:04.535Z,5.10
2022-11-25T07:08:07.545Z,4.65
2022-11-25T07:09:11.943Z,4.35
2022-11-25T07:10:14.869Z,4.28
2022-11-25T07:11:19.104Z,4.30
2022-11-25T07:12:22.070Z,4.57
2022-11-25T07:13:24.982Z,4.03
2022-11-25T07:14:27.961Z,4.55
2022-11-25T07:15:30.016Z,4.05
2022-11-25T07:16:33.778Z,7.35
2022-11-25T07:17:36.687Z,8.43
2022-11-25T07:18:40.190Z,9.38
2022-11-25T07:19:43.104Z,8.50
2022-11-25T07:20:45.121Z,6.93
2022-11-25T07:21:48.380Z,6.65
2022-11-25T07:22:50.321Z,4.07
2022-11-25T07:23:54.284Z,4.43
2022-11-25T07:24:58.565Z,5.03
2022-11-25T07:26:04.532Z,4.85
2022-11-25T07:27:08.189Z,3.90
2022-11-25T07:28:10.091Z,5.32
2022-11-25T07:29:54.163Z,4.78
2022-11-25T07:32:03.399Z,6.55
2022-11-25T07:33:09.313Z,4.80
2022-11-25T07:34:14.516Z,4.88
2022-11-25T07:35:17.558Z,4.97
2022-11-25T07:36:19.783Z,4.05
2022-11-25T07:37:22.741Z,4.60
2022-11-25T07:38:24.893Z,4.55
2022-11-25T07:39:27.840Z,4.15
2022-11-25T07:40:31.168Z,4.10
2022-11-25T07:41:34.837Z,4.57
2022-11-25T07:42:36.768Z,5.88
2022-11-25T07:43:40.516Z,5.75
2022-11-25T07:44:43.472Z,5.03
2022-11-25T07:45:45.427Z,5.85
2022-11-25T07:46:49.835Z,5.75
2022-11-25T07:47:51.838Z,5.30
2022-11-25T07:48:56.293Z,5.20
2022-11-25T07:49:59.185Z,4.30
2022-11-25T07:51:01.130Z,4.82
2022-11-25T07:52:04.516Z,5.78
2022-11-25T07:53:07.431Z,5.45
2022-11-25T07:54:12.706Z,4.93
2022-11-25T07:55:15.749Z,4.90
2022-11-25T07:56:19.232Z,5.30
2022-11-25T07:57:22.208Z,5.80
2022-11-25T07:58:24.218Z,5.65
2022-11-25T07:59:27.235Z,4.57
2022-11-25T08:00:29.211Z,4.70
2022-11-25T08:01:32.495Z,4.20
2022-11-25T08:02:35.517Z,5.07
2022-11-25T08:03:38.844Z,4.97
2022-11-25T08:04:41.805Z,4.28
2022-11-25T08:05:43.781Z,4.75
2022-11-25T08:06:48.629Z,4.45
2022-11-25T08:07:50.665Z,4.70
2022-11-25T08:08:55.499Z,5.03
2022-11-25T08:09:58.543Z,4.80
2022-11-25T08:11:00.513Z,4.90
2022-11-25T08:12:05.042Z,4.80
2022-11-25T08:13:07.049Z,4.65
2022-11-25T08:14:10.386Z,4.75
2022-11-25T08:15:12.404Z,4.88
2022-11-25T08:16:17.436Z,5.30
2022-11-25T08:17:20.498Z,4.80
2022-11-25T08:18:22.432Z,5.10
2022-11-25T08:19:31.133Z,4.82
2022-11-25T08:20:33.435Z,5.55
2022-11-25T08:21:36.430Z,4.90
2022-11-25T08:22:39.382Z,4.50
2022-11-25T08:23:43.257Z,4.35
2022-11-25T08:24:46.208Z,4.00
2022-11-25T08:25:50.681Z,4.80
2022-11-25T08:26:54.982Z,3.78
2022-11-25T08:27:59.428Z,4.20
2022-11-25T08:29:03.068Z,4.15
2022-11-25T08:30:07.390Z,4.05
2022-11-25T08:31:12.039Z,4.95
2022-11-25T08:32:15.204Z,5.15
2022-11-25T08:33:17.426Z,6.00
2022-11-25T08:34:22.554Z,6.65
2022-11-25T08:35:24.506Z,7.32
2022-11-25T08:36:29.345Z,6.38
2022-11-25T08:37:31.970Z,7.32
2022-11-25T08:38:35.260Z,7.35
2022-11-25T08:39:54.043Z,5.43
2022-11-25T08:40:57.588Z,5.40
2022-11-25T08:42:02.898Z,5.72
2022-11-25T08:43:06.242Z,5.90
2022-11-25T08:44:09.964Z,5.32
2022-11-25T08:45:13.582Z,5.05
2022-11-25T08:46:18.851Z,5.50
2022-11-25T08:47:21.862Z,4.93
2022-11-25T08:48:24.826Z,5.18
2022-11-25T08:49:29.288Z,4.97
2022-11-25T08:50:32.412Z,5.07
2022-11-25T08:51:36.650Z,5.80
2022-11-25T08:52:39.604Z,6.03
2022-11-25T08:53:42.581Z,5.30
2022-11-25T08:54:45.581Z,7.07
2022-11-25T08:55:47.805Z,6.38
2022-11-25T08:56:50.888Z,6.65
2022-11-25T08:57:52.923Z,6.57
2022-11-25T08:58:57.768Z,5.20
2022-11-25T09:00:00.694Z,5.85
2022-11-25T09:01:03.301Z,7.40
2022-11-25T09:02:10.193Z,6.60
2022-11-25T09:03:13.743Z,6.57
2022-11-25T09:04:16.786Z,6.03
2022-11-25T09:05:19.751Z,5.50
2022-11-25T09:06:22.300Z,5.97
2022-11-25T09:07:30.501Z,6.85
2022-11-25T09:08:33.836Z,6.25
2022-11-25T09:09:37.325Z,6.65
2022-11-25T09:10:41.653Z,7.45
2022-11-25T09:11:44.718Z,7.18
2022-11-25T09:12:46.859Z,6.65
2022-11-25T09:13:49.922Z,7.43
2022-11-25T09:14:55.240Z,6.25
2022-11-25T09:15:58.301Z,7.50
2022-11-25T09:17:02.013Z,6.60
2022-11-25T09:18:06.637Z,6.57
2022-11-25T09:19:09.811Z,4.95
2022-11-25T09:20:12.509Z,5.55
2022-11-25T09:21:18.564Z,5.25
2022-11-25T09:22:20.753Z,5.70
2022-11-25T09:23:24.123Z,6.80
2022-11-25T09:24:26.044Z,6.22
2022-11-25T09:25:29.651Z,6.45
2022-11-25T09:26:35.561Z,5.80
2022-11-25T09:27:37.648Z,5.72
2022-11-25T09:28:40.653Z,5.45
2022-11-25T09:29:43.561Z,5.72
2022-11-25T09:30:47.988Z,6.03
2022-11-25T09:31:54.748Z,4.65
2022-11-25T09:32:57.162Z,6.43
2022-11-25T09:34:00.161Z,5.70
2022-11-25T09:35:02.219Z,6.80
2022-11-25T09:36:07.042Z,7.15
2022-11-25T09:37:10.126Z,5.95
2022-11-25T09:38:13.178Z,6.82
2022-11-25T09:39:16.379Z,8.43
2022-11-25T09:40:20.665Z,6.75
2022-11-25T09:41:59.852Z,4.70
2022-11-25T09:43:26.380Z,5.53
2022-11-25T09:45:01.055Z,5.20
2022-11-25T09:46:36.122Z,5.93
2022-11-25T09:47:52.925Z,7.90
2022-11-25T09:49:04.544Z,8.48
2022-11-25T09:50:16.104Z,9.57
2022-11-25T09:51:21.492Z,8.98
2022-11-25T09:52:33.366Z,9.05
2022-11-25T09:53:44.176Z,7.90
2022-11-25T09:54:54.686Z,6.28
2022-11-25T09:56:05.800Z,6.50
2022-11-25T09:57:22.722Z,5.95
2022-11-25T09:58:31.193Z,6.03
2022-11-25T09:59:39.462Z,6.22
2022-11-25T10:00:45.464Z,6.18
2022-11-25T10:01:54.406Z,6.65
2022-11-25T10:03:04.753Z,6.70
2022-11-25T10:04:14.524Z,5.30
2022-11-25T10:05:22.667Z,5.13
2022-11-25T10:06:28.489Z,6.18
2022-11-25T10:07:37.852Z,6.30
2022-11-25T10:08:43.691Z,5.65
2022-11-25T10:09:46.709Z,6.80
2022-11-25T10:10:54.026Z,5.80
2022-11-25T10:12:01.049Z,7.70
2022-11-25T10:13:04.889Z,5.78
2022-11-25T10:14:14.363Z,5.65
2022-11-25T10:15:22.016Z,5.55
2022-11-25T10:16:34.429Z,6.90
2022-11-25T10:17:44.225Z,6.53
2022-11-25T10:18:54.232Z,6.80
2022-11-25T10:20:03.409Z,5.95
2022-11-25T10:21:05.861Z,6.30
2022-11-25T10:22:23.966Z,6.40
2022-11-25T10:23:33.274Z,6.05
2022-11-25T10:24:40.931Z,7.43
2022-11-25T10:25:48.358Z,6.35
2022-11-25T10:26:57.507Z,6.65
2022-11-25T10:28:02.477Z,6.28
2022-11-25T10:29:22.573Z,6.03
2022-11-25T10:30:27.283Z,6.25
2022-11-25T10:31:36.075Z,6.65
2022-11-25T10:32:44.924Z,6.80
2022-11-25T10:33:50.082Z,6.90
2022-11-25T10:34:57.792Z,6.50
2022-11-25T10:36:08.020Z,5.85
2022-11-25T10:37:19.955Z,5.47
2022-11-25T10:38:27.893Z,5.00
2022-11-25T10:39:33.905Z,5.95
2022-11-25T10:40:36.870Z,5.80
2022-11-25T10:41:47.178Z,5.35
2022-11-25T10:42:50.311Z,5.60
2022-11-25T10:43:53.127Z,5.78
2022-11-25T10:44:56.810Z,5.15
2022-11-25T10:46:09.547Z,4.82
2022-11-25T10:47:35.485Z,5.82
2022-11-25T10:48:55.677Z,5.95
2022-11-25T10:50:09.493Z,4.70
2022-11-25T10:51:29.265Z,5.25
2022-11-25T10:52:35.476Z,4.97
2022-11-25T10:53:39.398Z,5.38
2022-11-25T10:54:41.781Z,5.32
2022-11-25T10:56:00.599Z,5.60
2022-11-25T10:57:16.143Z,5.50
2022-11-25T10:58:27.819Z,5.63
2022-11-25T10:59:33.236Z,5.75
2022-11-25T11:00:37.852Z,5.03
2022-11-25T11:01:40.856Z,5.45
2022-11-25T11:02:48.352Z,5.80
2022-11-25T11:03:56.275Z,6.00
2022-11-25T11:05:01.649Z,5.93
2022-11-25T11:06:04.745Z,6.10
2022-11-25T11:07:09.377Z,5.38
2022-11-25T11:08:20.004Z,5.40
2022-11-25T11:09:34.824Z,5.80
2022-11-25T11:10:38.175Z,6.03
2022-11-25T11:11:50.053Z,6.15
2022-11-25T11:13:04.626Z,5.50
2022-11-25T11:14:15.500Z,6.50
2022-11-25T11:15:21.498Z,5.55
2022-11-25T11:16:31.582Z,5.32
2022-11-25T11:17:37.478Z,5.53
2022-11-25T11:18:41.901Z,5.30
2022-11-25T11:20:02.086Z,5.30
2022-11-25T11:21:08.553Z,5.28
2022-11-25T11:22:18.964Z,5.20
2022-11-25T11:23:22.445Z,5.45
2022-11-25T11:24:28.985Z,5.03
2022-11-25T11:25:33.024Z,6.05
2022-11-25T11:26:37.411Z,4.97
2022-11-25T11:27:39.356Z,5.68
2022-11-25T11:28:43.372Z,5.50
2022-11-25T11:29:45.380Z,5.05
2022-11-25T11:30:57.347Z,5.40
2022-11-25T11:32:02.663Z,6.22
2022-11-25T11:33:08.034Z,6.60
2022-11-25T11:34:26.803Z,5.45
2022-11-25T11:35:42.199Z,5.78
2022-11-25T11:37:11.829Z,6.35
2022-11-25T11:38:26.513Z,6.75
2022-11-25T11:39:52.309Z,5.70
2022-11-25T11:41:01.517Z,5.65
2022-11-25T11:42:13.422Z,5.50
2022-11-25T11:43:33.382Z,5.53
2022-11-25T11:44:47.790Z,5.50
2022-11-25T11:46:05.321Z,5.90
2022-11-25T11:47:21.944Z,6.38
2022-11-25T11:48:28.613Z,5.65
2022-11-25T11:50:14.126Z,6.60
2022-11-25T11:51:27.409Z,5.65
2022-11-25T11:52:45.272Z,5.20
2022-11-25T11:53:59.465Z,6.25
2022-11-25T11:55:13.213Z,5.47
2022-11-25T11:56:38.272Z,6.45
2022-11-25T11:57:47.377Z,7.88
2022-11-25T11:59:15.145Z,6.20
2022-11-25T12:00:20.702Z,6.72
2022-11-25T12:01:37.780Z,6.20
2022-11-25T12:02:55.844Z,6.18
2022-11-25T12:04:00.781Z,6.25
2022-11-25T12:05:15.441Z,6.60
2022-11-25T12:06:24.217Z,4.93
2022-11-25T12:07:34.586Z,5.45
2022-11-25T12:08:47.692Z,5.70
2022-11-25T12:09:55.500Z,5.43
2022-11-25T12:11:04.038Z,5.15
2022-11-25T12:12:14.486Z,5.85
2022-11-25T12:13:22.923Z,5.60
2022-11-25T12:14:36.418Z,4.95
2022-11-25T12:15:46.996Z,5.60
2022-11-25T12:16:55.951Z,5.07
2022-11-25T12:18:03.840Z,5.35
2022-11-25T12:19:15.397Z,4.93
2022-11-25T12:20:22.335Z,5.00
2022-11-25T12:21:42.226Z,5.63
2022-11-25T12:22:50.364Z,6.25
2022-11-25T12:24:03.804Z,5.72
2022-11-25T12:25:11.685Z,5.80
2022-11-25T12:26:23.274Z,5.50
2022-11-25T12:27:30.715Z,5.90
2022-11-25T12:28:39.680Z,5.40
2022-11-25T12:31:05.196Z,5.75
2022-11-25T12:32:30.999Z,4.95
2022-11-25T12:33:44.653Z,5.30
2022-11-25T12:34:54.879Z,5.32
2022-11-25T12:36:04.868Z,5.85
2022-11-25T12:37:15.166Z,5.40
2022-11-25T12:38:27.036Z,5.50
2022-11-25T12:39:37.127Z,5.30
2022-11-25T12:40:46.689Z,5.20
2022-11-25T12:41:54.295Z,5.43
2022-11-25T12:43:07.764Z,5.07
2022-11-25T12:44:17.533Z,5.18
2022-11-25T12:45:23.522Z,5.05
2022-11-25T12:46:34.509Z,5.50
2022-11-25T12:47:36.447Z,5.25
2022-11-25T12:48:42.288Z,5.22
2022-11-25T12:49:47.953Z,5.90
2022-11-25T12:51:02.906Z,5.25
2022-11-25T12:52:37.683Z,5.53
2022-11-25T12:53:47.200Z,5.30
2022-11-25T12:55:07.257Z,5.60
2022-11-25T12:56:18.473Z,5.60
2022-11-25T12:57:49.298Z,5.40
2022-11-25T12:59:06.311Z,5.28
2022-11-25T13:00:40.543Z,5.07
2022-11-25T13:01:55.911Z,4.28
2022-11-25T13:03:40.854Z,4.88
2022-11-25T13:05:32.962Z,4.93
2022-11-25T13:07:06.683Z,4.20
2022-11-25T13:08:23.071Z,4.65
2022-11-25T13:09:45.089Z,4.53
2022-11-25T13:11:10.022Z,5.70
2022-11-25T13:12:25.061Z,5.55
2022-11-25T13:13:51.133Z,5.05
2022-11-25T13:15:14.753Z,5.10
2022-11-25T13:16:19.988Z,4.85
2022-11-25T13:17:23.606Z,4.93
2022-11-25T13:18:31.196Z,5.13
2022-11-25T13:19:36.906Z,5.00
2022-11-25T13:20:48.908Z,5.45
2022-11-25T13:22:02.694Z,4.45
2022-11-25T13:23:18.644Z,5.47
2022-11-25T13:24:31.720Z,4.30
2022-11-25T13:25:35.376Z,4.60
2022-11-25T13:26:51.740Z,4.95
2022-11-25T13:27:59.138Z,4.85
2022-11-25T13:29:02.857Z,5.10
2022-11-25T13:30:07.415Z,4.53
2022-11-25T13:31:30.961Z,5.43
2022-11-25T13:32:40.507Z,4.95
2022-11-25T13:34:25.306Z,5.00
2022-11-25T13:35:34.525Z,5.68
2022-11-25T13:36:48.904Z,5.13
2022-11-25T13:37:51.519Z,4.95
2022-11-25T13:39:06.769Z,5.13
2022-11-25T13:40:37.027Z,6.00
2022-11-25T13:41:49.560Z,5.43
2022-11-25T13:42:52.771Z,4.85
2022-11-25T13:44:02.322Z,5.30
2022-11-25T13:45:06.248Z,5.35
2022-11-25T13:46:08.342Z,4.15
2022-11-25T13:47:26.113Z,5.43
2022-11-25T13:48:30.811Z,5.45
2022-11-25T13:49:39.423Z,5.05
2022-11-25T13:51:09.487Z,5.07
2022-11-25T13:52:27.607Z,4.82
2022-11-25T13:53:34.558Z,5.10
2022-11-25T13:54:43.415Z,5.82
2022-11-25T13:55:50.143Z,4.75
2022-11-25T13:57:24.685Z,6.10
2022-11-25T13:58:29.425Z,5.43
2022-11-25T13:59:37.354Z,6.20
2022-11-25T14:00:50.407Z,5.40
2022-11-25T14:01:55.351Z,5.93
2022-11-25T14:03:37.135Z,4.90
2022-11-25T14:04:51.280Z,4.50
2022-11-25T14:06:07.440Z,5.75
2022-11-25T14:07:26.798Z,4.80
2022-11-25T14:08:38.880Z,5.05
2022-11-25T14:10:04.142Z,5.72
2022-11-25T14:11:50.940Z,5.10
2022-11-25T14:13:15.566Z,5.07
2022-11-25T14:14:36.148Z,4.50
2022-11-25T14:16:06.526Z,5.05
2022-11-25T14:17:27.547Z,5.07
2022-11-25T14:19:28.140Z,4.72
2022-11-25T14:20:33.746Z,5.60
2022-11-25T14:21:56.421Z,5.00
2022-11-25T14:23:36.177Z,5.18
2022-11-25T14:24:42.835Z,5.22
2022-11-25T14:25:50.088Z,4.65
2022-11-25T14:26:57.360Z,5.18
2022-11-25T14:28:10.385Z,5.40
2022-11-25T14:29:17.486Z,5.35
2022-11-25T14:30:20.840Z,5.18
2022-11-25T14:31:30.418Z,5.00
2022-11-25T14:32:38.980Z,5.38
2022-11-25T14:33:49.494Z,4.88
2022-11-25T14:35:00.853Z,4.95
2022-11-25T14:36:09.223Z,4.68
2022-11-25T14:37:17.848Z,4.90
2022-11-25T14:38:23.328Z,5.15
2022-11-25T14:39:31.245Z,5.30
2022-11-25T14:40:38.973Z,5.25
2022-11-25T14:41:47.928Z,5.43
2022-11-25T14:42:59.301Z,5.45
2022-11-25T14:44:06.095Z,4.82
2022-11-25T14:45:22.612Z,5.57
2022-11-25T14:46:26.433Z,5.28
2022-11-25T14:47:36.061Z,5.78
2022-11-25T14:48:41.149Z,4.82
2022-11-25T14:50:00.082Z,5.63
2022-11-25T14:51:14.787Z,5.53